ENLA

Ula Platform Heliport

Norway
METAR ENLA 171250Z AUTO 18019KT //// BKN024/// 06/04 Q1013 W///S4
Observed Flight Rules
Dec-17 @ 12:50 UTC (22 minutes ago)
Wind Clouds
180° at 19 knots
  • Broken at 2,400' AGL
Temperatures Readings
Current 6°C / 43°F
Dewpoint 4°C / 39°F
Humidity 87%
Altimeter 29.91" Hg
Pressure 1013 hPa
Elevation 4
METAR ENLA 171250Z AUTO 18019KT //// BKN024/// 06/04 Q1013 W///S4
Observed Flight Rules
Dec-17 @ 12:50 UTC
(22 minutes ago)
Wind
180° at 19 knots
Clouds
  • Broken at 2,400' AGL
Temperature Dewpoint
6°C / 43°F 4°C / 39°F
Humidity Altimeter Pressure
87% 29.91" Hg 1013 hPa